TNCMMTPP

Guest
Details From TNCM - St Maarten - Princess Juliana Intl
To MTPP - Toussaint Louverture Intl
Flight Number -
Tags Generated
Created
Modified
Stats Distance 525 nm / 972 km
Max Altitude 0 ft / 0 m
Waypoints 4
Social Downloads 0
Likes 0
Share VATSIM

Download

Looking for another format? Having issues loading an existing format? Contact us
Advertisement - Login to hide

Notes

Generated

Route

TNCM JUNTA R1523 MTPP

ID Type Via Altitude Latitude Longitude Leg Dist Tot Dist Heading (true) Name
O TNCM APT - 0 ft / 0 m 18.03937˚ -63.11961˚ - 0 nm - -
JUNTA FIX - 0 ft / 0 m 18.38872˚ -67.47972˚ 249 nm 249 nm 276° / 274° -
R1523 FIX - 0 ft / 0 m 18.57933˚ -72.30692˚ 275 nm 524 nm 273° / 272° -
O MTPP APT - 0 ft / 0 m 18.57933˚ -72.30692˚ 0 nm 524 nm 0° / 180° -

Altitude Profile

Advertisement - Login to hide

Weather


0- 5 10 15 20 25 30 35+ Temperature / ° C

Clouds and Precipitation
Forecast for 2018-05-26 18:00 UTC. Updated 3 hours ago

Ground ~20,000 ft ~40,000 ft Winds

TNCM

Details ICAO TNCM (SXM)
Name St Maarten - Princess Juliana Intl
Region Caribbean Netherlands, Aruba, Curaçao, Sint Maarten
Timezone Unknown (UTC+0.0)
Stats Elevation 12 ft / 4 m (AMSL)
Location 18.040889° -63.108974°
Runways 1
Magnetic Variation 14.337° W

METAR

TNCM 262000Z 09011KT 050V130 9999 SCT020 29/22 Q1015 NOSIG RMK A2997

Decode

TAF

TAF TNCM 261738Z 2618/2718 10015KT P6SM VCSH SCT018 SCT040

Decode

Departure Runways

ID Width Length Bearing (true) Bearing (mag) Surface Threshold Offset Overrun Length
10 148 ft / 45 m 7,464 ft / 2,275 m 81.43° 95.77° Asphalt 0 ft / 0 m 151 ft / 46 m
28 148 ft / 45 m 7,464 ft / 2,275 m 261.44° 275.78° Asphalt 397 ft / 121 m 0 ft / 0 m

MTPP

Details ICAO MTPP (PAP)
Name TOUSSAINT LOUVERTURE INTL
Region Haiti
Timezone America/Port-au-Prince (UTC-4.0)
Stats Elevation 122 ft / 37 m (AMSL)
Location 18.580051° -72.292540°
Runways 1
Magnetic Variation 10.231° W

METAR

MTPP 262000Z 13019KT 9000 SCT032 34/20 Q1009 A2981

Decode

TAF

TAF MTPP 261800Z 2618/2718 09012G20KT 9000 SCT032 PROB30 TEMPO 2702/2706 4500 -SHRA FEW025CB SCT030 BECMG 2708/2712 VRB02KT 9000 FEW018 TEMPO 2714/2718 09010G20KT

Decode

Destination Runways

ID Width Length Bearing (true) Bearing (mag) Surface Threshold Offset Overrun Length
10 141 ft / 43 m 9,963 ft / 3,037 m 86.96° 97.19° Asphalt 0 ft / 0 m 0 ft / 0 m
28 141 ft / 43 m 9,963 ft / 3,037 m 266.97° 277.20° Asphalt 0 ft / 0 m 0 ft / 0 m

Approach Navaids

Runway Type Ident Frequency Range Bearing (true) Bearing (mag) Slope Elevation
10 Localiser IMG 111.50 MHz 18 nm / 33 km 87.00° 97.23° - 121 ft / 37 m (AMSL)
10 Glidescope IMG 111.50 MHz 10 nm / 19 km 73.67° 83.90° 3.00° 122 ft / 37 m (AMSL)
10 DME IMG 111.50 MHz 18 nm / 33 km - - - 121 ft / 37 m (AMSL)

Popular Alternatives